Montpellier

Airport
ICAO code: 
LFMT
Summary
ICAO Region: 
EUR
Territory: 
Location: 
Maugio, Languedoc-Roussillon,
Coordinates: 
Aerial View: 
43° 34' 47.986" N, 3° 58' 1.746" E
Airport BS: 
Bird Strike
Airport WX: 
Low Level Turbulence
Metar
Observation
LFMT 081530Z AUTO 28013KT 9999 FEW040 BKN160 OVC230 10/02 Q1003 TEMPO 27015G25KT
Station
Montpellier
Date/Time
2021-12-08 15:30:00
Wind direction
280°
Wind speed
13 kts
Lowest cloud amount
few clouds
Temperature
10°C
Dew point
2°C
Humidity
57%
QNH
1003 hPa
Weather condition
n/a

Description

Montpellier - Méditerranée Airport, also known as Fréjorgues Airport, is an airport in southern France. It is located 7 km east-southeast of Montpellier in Mauguio.

Climatology

Dry-summer subtropical ”Mediterranean" climate (Köppen climate classification Csa) - characterized by hot, dry summers and mild winters. During the summer, subtropical high pressure cells dominate, making rainfall unlikely except for the occasional thunderstorm. In the winter, periodic storms bring rain (snow at higher elevations).

Runways

Designator Length Width Surface Rops
13R/31L 1100 30 ASP Yes/Yes
13L/31R 2600 50 ASP Yes/Yes
Airport map: 
Aerial View: 

Accidents and Serious Incidents at or in the vicinity of LFMT

SKYbrary Partners:

Safety knowledge contributed by: